createdAt,value
2017-06-20T00:00:03.262Z,932.32
2017-06-20T00:00:16.731Z,932.39
2017-06-20T00:00:29.675Z,932.34
2017-06-20T00:00:43.349Z,932.37
2017-06-20T00:00:56.811Z,932.36
2017-06-20T00:01:09.756Z,932.35
2017-06-20T00:01:23.209Z,932.35
2017-06-20T00:01:36.652Z,932.41
2017-06-20T00:01:50.097Z,932.38
2017-06-20T00:02:02.508Z,932.34
2017-06-20T00:02:15.920Z,932.4
2017-06-20T00:02:29.358Z,932.39
2017-06-20T00:02:42.245Z,932.38
2017-06-20T00:02:55.713Z,932.36
2017-06-20T00:03:09.113Z,932.42
2017-06-20T00:03:22.487Z,932.39
2017-06-20T00:03:35.375Z,932.41
2017-06-20T00:03:48.786Z,932.42
2017-06-20T00:04:01.667Z,932.42
2017-06-20T00:04:15.100Z,932.47
2017-06-20T00:04:28.482Z,932.46
2017-06-20T00:04:40.893Z,932.46
2017-06-20T00:04:54.332Z,932.45
2017-06-20T00:05:07.686Z,932.46
2017-06-20T00:05:20.007Z,932.44
2017-06-20T00:05:32.909Z,932.43
2017-06-20T00:05:46.335Z,932.43
2017-06-20T00:05:59.809Z,932.44
2017-06-20T00:06:12.696Z,932.44
2017-06-20T00:06:26.094Z,932.44
2017-06-20T00:06:39.552Z,932.45
2017-06-20T00:06:53.019Z,932.45
2017-06-20T00:07:05.903Z,932.5
2017-06-20T00:07:19.306Z,932.46
2017-06-20T00:07:32.205Z,932.48
2017-06-20T00:07:45.097Z,932.49
2017-06-20T00:07:58.554Z,932.44
2017-06-20T00:08:11.476Z,932.44
2017-06-20T00:08:24.809Z,932.47
2017-06-20T00:08:37.200Z,932.47
2017-06-20T00:08:50.741Z,932.46
2017-06-20T00:09:04.416Z,932.45
2017-06-20T00:09:17.822Z,932.45
2017-06-20T00:09:30.705Z,932.48
2017-06-20T00:09:43.650Z,932.5
2017-06-20T00:09:56.581Z,932.44
2017-06-20T00:10:09.488Z,932.47
2017-06-20T00:10:22.927Z,932.48
2017-06-20T00:10:35.845Z,932.44
2017-06-20T00:10:48.872Z,932.46
2017-06-20T00:11:00.684Z,932.48
2017-06-20T00:11:14.166Z,932.57
2017-06-20T00:11:27.526Z,932.52
2017-06-20T00:11:40.433Z,932.47
2017-06-20T00:11:53.834Z,932.46
2017-06-20T00:12:07.238Z,932.51
2017-06-20T00:12:20.144Z,932.45
2017-06-20T00:12:33.103Z,932.45
2017-06-20T00:12:46.522Z,932.47
2017-06-20T00:12:59.927Z,932.5
2017-06-20T00:13:13.345Z,932.58
2017-06-20T00:13:26.309Z,932.51
2017-06-20T00:13:39.760Z,932.52
2017-06-20T00:13:53.244Z,932.51
2017-06-20T00:14:05.616Z,932.51
2017-06-20T00:14:19.009Z,932.53
2017-06-20T00:14:32.364Z,932.51
2017-06-20T00:14:45.778Z,932.54
2017-06-20T00:14:59.158Z,932.51
2017-06-20T00:15:12.569Z,932.55
2017-06-20T00:15:25.994Z,932.59
2017-06-20T00:15:39.479Z,932.63
2017-06-20T00:15:52.683Z,932.49
2017-06-20T00:16:05.583Z,932.57
2017-06-20T00:16:18.968Z,932.58
2017-06-20T00:16:32.413Z,932.55
2017-06-20T00:16:45.819Z,932.56
2017-06-20T00:16:59.201Z,932.5
2017-06-20T00:17:12.572Z,932.5
2017-06-20T00:17:26.003Z,932.5
2017-06-20T00:17:39.440Z,932.52
2017-06-20T00:17:52.411Z,932.52
2017-06-20T00:18:05.803Z,932.54
2017-06-20T00:18:19.218Z,932.54
2017-06-20T00:18:32.627Z,932.53
2017-06-20T00:18:46.106Z,932.56
2017-06-20T00:18:58.984Z,932.52
2017-06-20T00:19:11.916Z,932.55
2017-06-20T00:19:25.263Z,932.47
2017-06-20T00:19:38.666Z,932.49
2017-06-20T00:19:51.577Z,932.5
2017-06-20T00:20:06.444Z,932.52
2017-06-20T00:20:19.370Z,932.52
2017-06-20T00:20:32.864Z,932.54
2017-06-20T00:20:45.766Z,932.53
2017-06-20T00:20:58.667Z,932.52
2017-06-20T00:21:11.523Z,932.5
2017-06-20T00:21:24.401Z,932.57
2017-06-20T00:21:37.350Z,932.55
2017-06-20T00:21:50.749Z,932.62
2017-06-20T00:22:03.662Z,932.53
2017-06-20T00:22:16.579Z,932.58
2017-06-20T00:22:29.982Z,932.64
2017-06-20T00:22:43.406Z,932.58
2017-06-20T00:22:56.844Z,932.55
2017-06-20T00:23:09.778Z,932.6
2017-06-20T00:23:23.155Z,932.59
2017-06-20T00:23:36.557Z,932.62
2017-06-20T00:23:49.923Z,932.65
2017-06-20T00:24:03.349Z,932.54
2017-06-20T00:24:16.730Z,932.58
2017-06-20T00:24:29.626Z,932.57
2017-06-20T00:24:43.109Z,932.54
2017-06-20T00:24:56.492Z,932.6
2017-06-20T00:25:09.372Z,932.59
2017-06-20T00:25:22.795Z,932.56
2017-06-20T00:25:35.741Z,932.63
2017-06-20T00:25:49.171Z,932.58
2017-06-20T00:26:02.537Z,932.6
2017-06-20T00:26:15.950Z,932.61
2017-06-20T00:26:28.836Z,932.64
2017-06-20T00:26:41.734Z,932.62
2017-06-20T00:26:55.066Z,932.62
2017-06-20T00:27:08.486Z,932.62
2017-06-20T00:27:21.873Z,932.63
2017-06-20T00:27:34.776Z,932.64
2017-06-20T00:27:48.185Z,932.59
2017-06-20T00:28:01.608Z,932.6
2017-06-20T00:28:14.463Z,932.62
2017-06-20T00:28:27.337Z,932.63
2017-06-20T00:28:39.691Z,932.62
2017-06-20T00:28:53.092Z,932.61
2017-06-20T00:29:06.475Z,932.58
2017-06-20T00:29:19.923Z,932.6
2017-06-20T00:29:33.361Z,932.6
2017-06-20T00:29:45.739Z,932.59
2017-06-20T00:29:59.199Z,932.59
2017-06-20T00:30:12.646Z,932.6
2017-06-20T00:30:25.608Z,932.64
2017-06-20T00:30:38.527Z,932.62
2017-06-20T00:30:51.959Z,932.57
2017-06-20T00:31:05.652Z,932.6
2017-06-20T00:31:19.025Z,932.68
2017-06-20T00:31:32.487Z,932.62
2017-06-20T00:31:45.900Z,932.62
2017-06-20T00:31:59.318Z,932.62
2017-06-20T00:32:12.802Z,932.65
2017-06-20T00:32:26.296Z,932.65
2017-06-20T00:32:39.726Z,932.65
2017-06-20T00:32:53.128Z,932.63
2017-06-20T00:33:06.541Z,932.65
2017-06-20T00:33:19.908Z,932.63
2017-06-20T00:33:32.834Z,932.64
2017-06-20T00:33:46.256Z,932.61
2017-06-20T00:33:59.719Z,932.62
2017-06-20T00:34:12.573Z,932.65
2017-06-20T00:34:26.004Z,932.59
2017-06-20T00:34:38.900Z,932.65
2017-06-20T00:34:52.321Z,932.67
2017-06-20T00:35:05.768Z,932.67
2017-06-20T00:35:19.151Z,932.69
2017-06-20T00:35:32.596Z,932.68
2017-06-20T00:35:46.057Z,932.71
2017-06-20T00:35:59.392Z,932.67
2017-06-20T00:36:12.333Z,932.66
2017-06-20T00:36:25.821Z,932.72
2017-06-20T00:36:38.228Z,932.69
2017-06-20T00:36:51.679Z,932.68
2017-06-20T00:37:04.569Z,932.65
2017-06-20T00:37:18.006Z,932.7
2017-06-20T00:37:31.474Z,932.69
2017-06-20T00:37:44.928Z,932.74
2017-06-20T00:37:58.334Z,932.7
2017-06-20T00:38:11.807Z,932.68
2017-06-20T00:38:25.251Z,932.7
2017-06-20T00:38:38.167Z,932.72
2017-06-20T00:38:51.590Z,932.79
2017-06-20T00:39:04.512Z,932.75
2017-06-20T00:39:17.982Z,932.73
2017-06-20T00:39:30.927Z,932.73
2017-06-20T00:39:44.319Z,932.71
2017-06-20T00:39:57.220Z,932.72
2017-06-20T00:40:10.660Z,932.71
2017-06-20T00:40:24.044Z,932.7
2017-06-20T00:40:36.918Z,932.71
2017-06-20T00:40:50.320Z,932.69
2017-06-20T00:41:03.173Z,932.69
2017-06-20T00:41:16.631Z,932.74
2017-06-20T00:41:29.508Z,932.71
2017-06-20T00:41:42.947Z,932.71
2017-06-20T00:41:56.417Z,932.71
2017-06-20T00:42:09.856Z,932.71
2017-06-20T00:42:22.751Z,932.74
2017-06-20T00:42:36.166Z,932.77
2017-06-20T00:42:49.062Z,932.74
2017-06-20T00:43:02.473Z,932.73
2017-06-20T00:43:15.951Z,932.74
2017-06-20T00:43:29.391Z,932.76
2017-06-20T00:43:42.833Z,932.74
2017-06-20T00:43:55.709Z,932.74
2017-06-20T00:44:09.100Z,932.78
2017-06-20T00:44:22.482Z,932.73
2017-06-20T00:44:35.963Z,932.74
2017-06-20T00:44:48.296Z,932.76
2017-06-20T00:45:01.701Z,932.77
2017-06-20T00:45:15.165Z,932.76
2017-06-20T00:45:28.579Z,932.78
2017-06-20T00:45:41.555Z,932.74
2017-06-20T00:45:54.486Z,932.75
2017-06-20T00:46:08.022Z,932.77
2017-06-20T00:46:20.861Z,932.77
2017-06-20T00:46:33.198Z,932.72
2017-06-20T00:46:45.539Z,932.76
2017-06-20T00:46:58.945Z,932.73
2017-06-20T00:47:12.429Z,932.74
2017-06-20T00:47:25.901Z,932.71
2017-06-20T00:47:39.368Z,932.75
2017-06-20T00:47:52.804Z,932.76
2017-06-20T00:48:06.267Z,932.75
2017-06-20T00:48:19.655Z,932.73
2017-06-20T00:48:32.616Z,932.71
2017-06-20T00:48:46.081Z,932.74
2017-06-20T00:48:57.990Z,932.71
2017-06-20T00:49:11.419Z,932.73
2017-06-20T00:49:24.825Z,932.75
2017-06-20T00:49:37.698Z,932.76
2017-06-20T00:49:51.085Z,932.79
2017-06-20T00:50:03.485Z,932.74
2017-06-20T00:50:16.989Z,932.75
2017-06-20T00:50:30.414Z,932.77
2017-06-20T00:50:43.384Z,932.73
2017-06-20T00:50:56.821Z,932.76
2017-06-20T00:51:09.660Z,932.74
2017-06-20T00:51:23.109Z,932.76
2017-06-20T00:51:36.506Z,932.73
2017-06-20T00:51:49.399Z,932.72
2017-06-20T00:52:02.772Z,932.73
2017-06-20T00:52:16.243Z,932.75
2017-06-20T00:52:29.721Z,932.75
2017-06-20T00:52:43.198Z,932.73
2017-06-20T00:52:56.660Z,932.74
2017-06-20T00:53:10.204Z,932.75
2017-06-20T00:53:23.585Z,932.72
2017-06-20T00:53:36.553Z,932.73
2017-06-20T00:53:49.512Z,932.7
2017-06-20T00:54:02.923Z,932.72
2017-06-20T00:54:16.425Z,932.71
2017-06-20T00:54:29.795Z,932.71
2017-06-20T00:54:43.232Z,932.74
2017-06-20T00:54:56.632Z,932.71
2017-06-20T00:55:08.987Z,932.77
2017-06-20T00:55:22.398Z,932.76
2017-06-20T00:55:35.820Z,932.75
2017-06-20T00:55:49.285Z,932.71
2017-06-20T00:56:02.253Z,932.77
2017-06-20T00:56:15.193Z,932.71
2017-06-20T00:56:28.676Z,932.73
2017-06-20T00:56:42.105Z,932.75
2017-06-20T00:56:55.633Z,932.72
2017-06-20T00:57:08.540Z,932.74
2017-06-20T00:57:21.442Z,932.75
2017-06-20T00:57:34.343Z,932.7
2017-06-20T00:57:47.786Z,932.72
2017-06-20T00:58:01.241Z,932.76
2017-06-20T00:58:14.667Z,932.76
2017-06-20T00:58:28.181Z,932.82
2017-06-20T00:58:41.060Z,932.76
2017-06-20T00:58:54.518Z,932.74
2017-06-20T00:59:07.908Z,932.78
2017-06-20T00:59:20.791Z,932.76
2017-06-20T00:59:34.223Z,932.75
2017-06-20T00:59:47.197Z,932.74
2017-06-20T01:00:00.093Z,932.7
2017-06-20T01:00:12.951Z,932.68
2017-06-20T01:00:26.399Z,932.72
2017-06-20T01:00:39.833Z,932.67
2017-06-20T01:00:52.658Z,932.7
2017-06-20T01:01:05.525Z,932.74
2017-06-20T01:01:19.248Z,932.72
2017-06-20T01:01:32.661Z,932.7
2017-06-20T01:01:45.594Z,932.75
2017-06-20T01:01:57.992Z,932.73
2017-06-20T01:02:11.399Z,932.7
2017-06-20T01:02:24.329Z,932.7
2017-06-20T01:02:37.183Z,932.69
2017-06-20T01:02:50.107Z,932.69
2017-06-20T01:03:03.512Z,932.71
2017-06-20T01:03:16.958Z,932.68
2017-06-20T01:03:30.008Z,932.66
2017-06-20T01:03:42.913Z,932.68
2017-06-20T01:03:55.773Z,932.66
2017-06-20T01:04:09.176Z,932.65
2017-06-20T01:04:22.585Z,932.64
2017-06-20T01:04:36.010Z,932.68
2017-06-20T01:04:48.953Z,932.65
2017-06-20T01:05:02.370Z,932.63
2017-06-20T01:05:15.823Z,932.62
2017-06-20T01:05:29.304Z,932.6
2017-06-20T01:05:42.690Z,932.63
2017-06-20T01:05:56.199Z,932.61
2017-06-20T01:06:09.608Z,932.6
2017-06-20T01:06:21.990Z,932.58
2017-06-20T01:06:34.373Z,932.59
2017-06-20T01:06:47.825Z,932.57
2017-06-20T01:07:01.248Z,932.59
2017-06-20T01:07:14.692Z,932.58
2017-06-20T01:07:28.085Z,932.52
2017-06-20T01:07:41.514Z,932.53
2017-06-20T01:07:54.939Z,932.54
2017-06-20T01:08:08.377Z,932.54
2017-06-20T01:08:21.817Z,932.53
2017-06-20T01:08:35.292Z,932.55
2017-06-20T01:08:48.205Z,932.52
2017-06-20T01:09:01.063Z,932.53
2017-06-20T01:09:13.957Z,932.48
2017-06-20T01:09:27.364Z,932.53
2017-06-20T01:09:40.327Z,932.48
2017-06-20T01:09:53.794Z,932.52
2017-06-20T01:10:06.155Z,932.5
2017-06-20T01:10:19.588Z,932.46
2017-06-20T01:10:33.021Z,932.49
2017-06-20T01:10:46.434Z,932.49
2017-06-20T01:10:58.831Z,932.49
2017-06-20T01:11:12.214Z,932.46
2017-06-20T01:11:25.616Z,932.46
2017-06-20T01:11:39.008Z,932.5
2017-06-20T01:11:52.437Z,932.46
2017-06-20T01:12:05.881Z,932.5
2017-06-20T01:12:19.264Z,932.45
2017-06-20T01:12:32.891Z,932.42
2017-06-20T01:12:45.739Z,932.42
2017-06-20T01:12:59.184Z,932.44
2017-06-20T01:13:12.030Z,932.43
2017-06-20T01:13:25.117Z,932.41
2017-06-20T01:13:38.576Z,932.42
2017-06-20T01:13:51.944Z,932.45
2017-06-20T01:14:04.864Z,932.42
2017-06-20T01:14:17.170Z,932.43
2017-06-20T01:14:29.514Z,932.42
2017-06-20T01:14:41.916Z,932.43
2017-06-20T01:14:55.356Z,932.41
2017-06-20T01:15:08.777Z,932.41
2017-06-20T01:15:22.198Z,932.4
2017-06-20T01:15:34.542Z,932.4
2017-06-20T01:15:47.972Z,932.4
2017-06-20T01:16:01.383Z,932.42
2017-06-20T01:16:14.281Z,932.39
2017-06-20T01:16:27.993Z,932.41
2017-06-20T01:16:40.859Z,932.4
2017-06-20T01:16:54.266Z,932.4
2017-06-20T01:17:07.146Z,932.41
2017-06-20T01:17:20.537Z,932.41
2017-06-20T01:17:33.422Z,932.46
2017-06-20T01:17:45.789Z,932.48
2017-06-20T01:17:58.695Z,932.46
2017-06-20T01:18:12.310Z,932.45
2017-06-20T01:18:25.255Z,932.38
2017-06-20T01:18:37.651Z,932.39
2017-06-20T01:18:51.156Z,932.38
2017-06-20T01:19:04.005Z,932.42
2017-06-20T01:19:16.868Z,932.38
2017-06-20T01:19:30.223Z,932.43
2017-06-20T01:19:43.640Z,932.39
2017-06-20T01:19:56.563Z,932.42
2017-06-20T01:20:10.026Z,932.41
2017-06-20T01:20:23.461Z,932.36
2017-06-20T01:20:36.948Z,932.34
2017-06-20T01:20:50.342Z,932.41
2017-06-20T01:21:03.229Z,932.38
2017-06-20T01:21:15.096Z,932.37
2017-06-20T01:21:27.981Z,932.42
2017-06-20T01:21:41.360Z,932.43
2017-06-20T01:21:54.777Z,932.42
2017-06-20T01:22:08.192Z,932.42
2017-06-20T01:22:21.597Z,932.4
2017-06-20T01:22:35.047Z,932.43
2017-06-20T01:22:47.919Z,932.4
2017-06-20T01:23:00.861Z,932.4
2017-06-20T01:23:14.316Z,932.36
2017-06-20T01:23:27.255Z,932.37
2017-06-20T01:23:39.629Z,932.45
2017-06-20T01:23:52.480Z,932.39
2017-06-20T01:24:05.954Z,932.39
2017-06-20T01:24:18.830Z,932.38
2017-06-20T01:24:32.222Z,932.39
2017-06-20T01:24:45.094Z,932.34
2017-06-20T01:24:58.543Z,932.37
2017-06-20T01:25:11.995Z,932.39
2017-06-20T01:25:25.416Z,932.43
2017-06-20T01:25:38.820Z,932.37
2017-06-20T01:25:52.254Z,932.4
2017-06-20T01:26:05.644Z,932.36
2017-06-20T01:26:19.078Z,932.39
2017-06-20T01:26:32.505Z,932.4
2017-06-20T01:26:45.412Z,932.38
2017-06-20T01:26:58.820Z,932.38
2017-06-20T01:27:12.250Z,932.37
2017-06-20T01:27:25.641Z,932.37
2017-06-20T01:27:39.089Z,932.4
2017-06-20T01:27:52.545Z,932.4
2017-06-20T01:28:05.407Z,932.41
2017-06-20T01:28:18.300Z,932.48
2017-06-20T01:28:31.702Z,932.44
2017-06-20T01:28:44.549Z,932.41
2017-06-20T01:28:57.996Z,932.41
2017-06-20T01:29:10.905Z,932.42
2017-06-20T01:29:23.840Z,932.46
2017-06-20T01:29:37.234Z,932.35
2017-06-20T01:29:50.630Z,932.44
2017-06-20T01:30:02.994Z,932.46
2017-06-20T01:30:16.382Z,932.47
2017-06-20T01:30:29.894Z,932.46
2017-06-20T01:30:42.240Z,932.44
2017-06-20T01:30:55.169Z,932.44
2017-06-20T01:31:08.555Z,932.43
2017-06-20T01:31:21.458Z,932.47
2017-06-20T01:31:34.676Z,932.47
2017-06-20T01:31:48.112Z,932.48
2017-06-20T01:32:00.997Z,932.48
2017-06-20T01:32:14.480Z,932.5
2017-06-20T01:32:27.934Z,932.46
2017-06-20T01:32:40.821Z,932.52
2017-06-20T01:32:54.174Z,932.52
2017-06-20T01:33:07.572Z,932.45
2017-06-20T01:33:20.969Z,932.47
2017-06-20T01:33:34.367Z,932.52
2017-06-20T01:33:47.844Z,932.53
2017-06-20T01:34:00.708Z,932.51
2017-06-20T01:34:14.110Z,932.48
2017-06-20T01:34:27.554Z,932.46
2017-06-20T01:34:41.016Z,932.52
2017-06-20T01:34:54.430Z,932.5
2017-06-20T01:35:07.324Z,932.52
2017-06-20T01:35:20.791Z,932.52
2017-06-20T01:35:34.223Z,932.55
2017-06-20T01:35:47.145Z,932.52
2017-06-20T01:35:59.511Z,932.5
2017-06-20T01:36:12.402Z,932.52
2017-06-20T01:36:26.073Z,932.54
2017-06-20T01:36:39.515Z,932.5
2017-06-20T01:36:52.432Z,932.53
2017-06-20T01:37:05.848Z,932.51
2017-06-20T01:37:19.221Z,932.52
2017-06-20T01:37:32.668Z,932.53
2017-06-20T01:37:46.092Z,932.52
2017-06-20T01:37:59.493Z,932.52
2017-06-20T01:38:12.916Z,932.58
2017-06-20T01:38:26.269Z,932.54
2017-06-20T01:38:39.215Z,932.53
2017-06-20T01:38:52.663Z,932.56
2017-06-20T01:39:05.631Z,932.52
2017-06-20T01:39:18.992Z,932.54
2017-06-20T01:39:32.415Z,932.57
2017-06-20T01:39:45.852Z,932.58
2017-06-20T01:39:58.722Z,932.57
2017-06-20T01:40:12.162Z,932.57
2017-06-20T01:40:25.555Z,932.58
2017-06-20T01:40:39.008Z,932.57
2017-06-20T01:40:52.455Z,932.57
2017-06-20T01:41:06.119Z,932.63
2017-06-20T01:41:19.591Z,932.62
2017-06-20T01:41:32.473Z,932.6
2017-06-20T01:41:45.369Z,932.63
2017-06-20T01:41:58.979Z,932.62
2017-06-20T01:42:12.422Z,932.66
2017-06-20T01:42:25.851Z,932.59
2017-06-20T01:42:38.781Z,932.64
2017-06-20T01:42:52.195Z,932.63
2017-06-20T01:43:05.586Z,932.64
2017-06-20T01:43:18.486Z,932.71
2017-06-20T01:43:31.928Z,932.66
2017-06-20T01:43:45.335Z,932.68
2017-06-20T01:43:58.766Z,932.66
2017-06-20T01:44:12.146Z,932.61
2017-06-20T01:44:25.041Z,932.62
2017-06-20T01:44:38.438Z,932.67
2017-06-20T01:44:51.803Z,932.6
2017-06-20T01:45:04.167Z,932.59
2017-06-20T01:45:17.111Z,932.62
2017-06-20T01:45:30.573Z,932.71
2017-06-20T01:45:44.049Z,932.69
2017-06-20T01:45:56.966Z,932.64
2017-06-20T01:46:10.366Z,932.68
2017-06-20T01:46:23.304Z,932.65
2017-06-20T01:46:36.441Z,932.61
2017-06-20T01:46:49.779Z,932.68
2017-06-20T01:47:03.172Z,932.7
2017-06-20T01:47:16.567Z,932.73
2017-06-20T01:47:30.014Z,932.69
2017-06-20T01:47:43.433Z,932.62
2017-06-20T01:47:56.850Z,932.64
2017-06-20T01:48:10.228Z,932.66
2017-06-20T01:48:23.668Z,932.69
2017-06-20T01:48:36.523Z,932.7
2017-06-20T01:48:49.395Z,932.66
2017-06-20T01:49:02.800Z,932.64
2017-06-20T01:49:15.745Z,932.66
2017-06-20T01:49:29.105Z,932.65
2017-06-20T01:49:41.991Z,932.59
2017-06-20T01:49:55.432Z,932.66
2017-06-20T01:50:08.861Z,932.72
2017-06-20T01:50:22.253Z,932.7
2017-06-20T01:50:35.667Z,932.69
2017-06-20T01:50:49.121Z,932.74
2017-06-20T01:51:02.006Z,932.65
2017-06-20T01:51:15.432Z,932.67
2017-06-20T01:51:28.867Z,932.74
2017-06-20T01:51:41.243Z,932.69
2017-06-20T01:51:54.639Z,932.75
2017-06-20T01:52:07.557Z,932.73
2017-06-20T01:52:20.428Z,932.69
2017-06-20T01:52:33.868Z,932.7
2017-06-20T01:52:46.759Z,932.7
2017-06-20T01:53:00.170Z,932.72
2017-06-20T01:53:13.029Z,932.66
2017-06-20T01:53:25.442Z,932.76
2017-06-20T01:53:38.873Z,932.7
2017-06-20T01:53:52.217Z,932.74
2017-06-20T01:54:05.118Z,932.75
2017-06-20T01:54:18.538Z,932.74
2017-06-20T01:54:32.012Z,932.75
2017-06-20T01:54:45.435Z,932.74
2017-06-20T01:54:58.339Z,932.74
2017-06-20T01:55:11.816Z,932.79
2017-06-20T01:55:25.230Z,932.73
2017-06-20T01:55:38.655Z,932.75
2017-06-20T01:55:52.018Z,932.76
2017-06-20T01:56:04.952Z,932.7
2017-06-20T01:56:18.380Z,932.72
2017-06-20T01:56:31.871Z,932.76
2017-06-20T01:56:45.322Z,932.75
2017-06-20T01:56:58.779Z,932.76
2017-06-20T01:57:12.163Z,932.79
2017-06-20T01:57:25.117Z,932.79
2017-06-20T01:57:38.595Z,932.75
2017-06-20T01:57:52.009Z,932.74
2017-06-20T01:58:05.466Z,932.73
2017-06-20T01:58:18.424Z,932.75
2017-06-20T01:58:31.848Z,932.77
2017-06-20T01:58:44.748Z,932.78
2017-06-20T01:58:58.159Z,932.77
2017-06-20T01:59:11.058Z,932.75
2017-06-20T01:59:24.540Z,932.72
2017-06-20T01:59:36.885Z,932.76
2017-06-20T01:59:50.360Z,932.75
2017-06-20T02:00:03.791Z,932.73
2017-06-20T02:00:17.168Z,932.72
2017-06-20T02:00:30.575Z,932.72
2017-06-20T02:00:43.473Z,932.77
2017-06-20T02:00:57.179Z,932.75
2017-06-20T02:01:10.132Z,932.72
2017-06-20T02:01:23.012Z,932.7
2017-06-20T02:01:35.380Z,932.71
2017-06-20T02:01:49.353Z,932.7
2017-06-20T02:02:02.769Z,932.74
2017-06-20T02:02:15.120Z,932.73
2017-06-20T02:02:28.568Z,932.78
2017-06-20T02:02:41.978Z,932.7
2017-06-20T02:02:55.405Z,932.73
2017-06-20T02:03:08.834Z,932.76
2017-06-20T02:03:22.290Z,932.79
2017-06-20T02:03:35.214Z,932.78
2017-06-20T02:03:48.641Z,932.82
2017-06-20T02:04:01.525Z,932.8
2017-06-20T02:04:14.931Z,932.75
2017-06-20T02:04:28.291Z,932.75
2017-06-20T02:04:41.726Z,932.76
2017-06-20T02:04:54.665Z,932.75
2017-06-20T02:05:08.121Z,932.76
2017-06-20T02:05:21.553Z,932.77
2017-06-20T02:05:34.982Z,932.8
2017-06-20T02:05:48.422Z,932.76
2017-06-20T02:06:01.919Z,932.74
2017-06-20T02:06:15.375Z,932.76
2017-06-20T02:06:28.292Z,932.76
2017-06-20T02:06:41.708Z,932.75
2017-06-20T02:06:54.628Z,932.78
2017-06-20T02:07:08.085Z,932.75
2017-06-20T02:07:21.450Z,932.77
2017-06-20T02:07:34.406Z,932.76
2017-06-20T02:07:46.783Z,932.85
2017-06-20T02:08:00.215Z,932.77
2017-06-20T02:08:13.671Z,932.82
2017-06-20T02:08:26.596Z,932.79
2017-06-20T02:08:39.944Z,932.83
2017-06-20T02:08:53.312Z,932.85
2017-06-20T02:09:06.711Z,932.84
2017-06-20T02:09:20.089Z,932.83
2017-06-20T02:09:32.984Z,932.86
2017-06-20T02:09:46.387Z,932.8
2017-06-20T02:09:59.785Z,932.82
2017-06-20T02:10:12.764Z,932.87
2017-06-20T02:10:26.190Z,932.86
2017-06-20T02:10:39.656Z,932.93
2017-06-20T02:10:53.125Z,932.87
2017-06-20T02:11:06.052Z,932.85
2017-06-20T02:11:19.477Z,932.87
2017-06-20T02:11:32.856Z,932.91
2017-06-20T02:11:45.744Z,932.87
2017-06-20T02:11:58.624Z,932.85
2017-06-20T02:12:11.553Z,932.88
2017-06-20T02:12:24.981Z,932.86
2017-06-20T02:12:38.364Z,932.86
2017-06-20T02:12:51.778Z,932.9
2017-06-20T02:13:04.683Z,932.89
2017-06-20T02:13:18.096Z,932.91
2017-06-20T02:13:31.546Z,932.91
2017-06-20T02:13:44.927Z,932.92
2017-06-20T02:13:57.831Z,932.97
2017-06-20T02:14:10.183Z,932.93
2017-06-20T02:14:23.667Z,932.92
2017-06-20T02:14:36.589Z,932.91
2017-06-20T02:14:49.989Z,932.9
2017-06-20T02:15:02.357Z,932.94
2017-06-20T02:15:15.297Z,932.92
2017-06-20T02:15:28.707Z,932.92
2017-06-20T02:15:41.590Z,932.97
2017-06-20T02:15:55.027Z,932.95
2017-06-20T02:16:08.479Z,932.92
2017-06-20T02:16:21.300Z,932.92
2017-06-20T02:16:34.140Z,932.92
2017-06-20T02:16:47.813Z,932.91
2017-06-20T02:17:00.747Z,932.97
2017-06-20T02:17:13.135Z,932.97
2017-06-20T02:17:26.589Z,932.91
2017-06-20T02:17:40.070Z,932.93
2017-06-20T02:17:53.468Z,932.94
2017-06-20T02:18:06.296Z,932.89
2017-06-20T02:18:19.679Z,932.91
2017-06-20T02:18:33.070Z,932.95
2017-06-20T02:18:46.489Z,932.92
2017-06-20T02:18:59.403Z,932.95
2017-06-20T02:19:12.335Z,932.93
2017-06-20T02:19:25.746Z,932.89
2017-06-20T02:19:39.147Z,932.92
2017-06-20T02:19:52.542Z,932.95
2017-06-20T02:20:04.919Z,932.94
2017-06-20T02:20:18.340Z,932.94
2017-06-20T02:20:30.663Z,932.98
2017-06-20T02:20:44.110Z,932.91
2017-06-20T02:20:57.104Z,932.93
2017-06-20T02:21:10.001Z,932.91
2017-06-20T02:21:23.389Z,932.95
2017-06-20T02:21:35.940Z,932.96
2017-06-20T02:21:48.873Z,932.94
2017-06-20T02:22:02.257Z,932.94
2017-06-20T02:22:15.126Z,932.95
2017-06-20T02:22:28.019Z,932.98
2017-06-20T02:22:41.454Z,932.92
2017-06-20T02:22:54.887Z,932.92
2017-06-20T02:23:08.355Z,932.95
2017-06-20T02:23:21.806Z,932.91
2017-06-20T02:23:35.204Z,932.91
2017-06-20T02:23:48.600Z,932.92
2017-06-20T02:24:01.967Z,932.91
2017-06-20T02:24:15.452Z,932.88
2017-06-20T02:24:28.916Z,932.91
2017-06-20T02:24:42.328Z,932.89
2017-06-20T02:24:55.775Z,932.86
2017-06-20T02:25:09.195Z,932.89
2017-06-20T02:25:22.586Z,932.92
2017-06-20T02:25:36.067Z,932.88
2017-06-20T02:25:48.977Z,932.93
2017-06-20T02:26:02.414Z,932.93
2017-06-20T02:26:15.295Z,932.91
2017-06-20T02:26:28.696Z,932.93
2017-06-20T02:26:42.104Z,932.94
2017-06-20T02:26:55.536Z,932.92
2017-06-20T02:27:08.966Z,932.92
2017-06-20T02:27:22.398Z,932.92
2017-06-20T02:27:35.752Z,932.92
2017-06-20T02:27:49.163Z,932.93
2017-06-20T02:28:02.615Z,932.95
2017-06-20T02:28:15.498Z,932.97
2017-06-20T02:28:28.923Z,932.95
2017-06-20T02:28:42.402Z,932.96
2017-06-20T02:28:55.823Z,932.94
2017-06-20T02:29:09.208Z,933
2017-06-20T02:29:22.611Z,932.97
2017-06-20T02:29:36.017Z,932.95
2017-06-20T02:29:49.471Z,932.98
2017-06-20T02:30:02.873Z,932.95
2017-06-20T02:30:16.318Z,932.96
2017-06-20T02:30:29.789Z,932.99
2017-06-20T02:30:43.384Z,932.98
2017-06-20T02:30:56.279Z,932.96
2017-06-20T02:31:09.170Z,932.94
2017-06-20T02:31:22.589Z,932.98
2017-06-20T02:31:35.990Z,932.97
2017-06-20T02:31:48.863Z,932.95
2017-06-20T02:32:02.514Z,932.98
2017-06-20T02:32:15.906Z,932.92
2017-06-20T02:32:29.364Z,933
2017-06-20T02:32:42.200Z,933
2017-06-20T02:32:55.605Z,932.94
2017-06-20T02:33:09.025Z,932.97
2017-06-20T02:33:21.937Z,932.96
2017-06-20T02:33:35.416Z,932.96
2017-06-20T02:33:48.813Z,932.97
2017-06-20T02:34:01.707Z,932.96
2017-06-20T02:34:15.137Z,932.96
2017-06-20T02:34:27.499Z,932.96
2017-06-20T02:34:40.406Z,932.98
2017-06-20T02:34:53.813Z,932.91
2017-06-20T02:35:07.240Z,932.96
2017-06-20T02:35:20.753Z,932.92
2017-06-20T02:35:33.673Z,932.97
2017-06-20T02:35:47.104Z,932.93
2017-06-20T02:36:00.521Z,932.94
2017-06-20T02:36:13.446Z,932.9
2017-06-20T02:36:26.309Z,932.94
2017-06-20T02:36:39.738Z,932.92
2017-06-20T02:36:52.650Z,932.92
2017-06-20T02:37:05.549Z,932.92
2017-06-20T02:37:18.965Z,932.91
2017-06-20T02:37:32.467Z,932.93
2017-06-20T02:37:45.931Z,932.95
2017-06-20T02:37:58.802Z,933
2017-06-20T02:38:12.173Z,932.92
2017-06-20T02:38:25.612Z,932.93
2017-06-20T02:38:39.016Z,932.87
2017-06-20T02:38:51.890Z,932.94
2017-06-20T02:39:04.813Z,932.93
2017-06-20T02:39:17.739Z,932.91
2017-06-20T02:39:31.107Z,932.91
2017-06-20T02:39:44.556Z,932.95
2017-06-20T02:39:57.997Z,932.95
2017-06-20T02:40:11.374Z,932.97
2017-06-20T02:40:24.308Z,932.94
2017-06-20T02:40:37.303Z,932.92
2017-06-20T02:40:50.645Z,933
2017-06-20T02:41:04.111Z,932.97
2017-06-20T02:41:17.589Z,932.94
2017-06-20T02:41:30.497Z,932.94
2017-06-20T02:41:43.392Z,932.94
2017-06-20T02:41:56.797Z,932.96
2017-06-20T02:42:10.221Z,932.95
2017-06-20T02:42:23.682Z,932.93
2017-06-20T02:42:37.086Z,932.87
2017-06-20T02:42:50.521Z,932.89
2017-06-20T02:43:04.020Z,932.89
2017-06-20T02:43:17.419Z,932.89
2017-06-20T02:43:29.725Z,932.89
2017-06-20T02:43:42.613Z,932.9
2017-06-20T02:43:55.474Z,932.92
2017-06-20T02:44:08.888Z,932.89
2017-06-20T02:44:22.321Z,932.89
2017-06-20T02:44:35.719Z,932.91
2017-06-20T02:44:49.167Z,932.92
2017-06-20T02:45:02.579Z,932.9
2017-06-20T02:45:15.480Z,932.91
2017-06-20T02:45:28.940Z,932.92